sensor_id;sensor_type;location;lat;lon;timestamp;P1;durP1;ratioP1;P2;durP2;ratioP2
33327;SDS011;19692;52.998;9.116;2022-07-18T00:00:24;6.60;;;4.73;;
33327;SDS011;19692;52.998;9.116;2022-07-18T00:02:50;7.10;;;4.87;;
33327;SDS011;19692;52.998;9.116;2022-07-18T00:05:16;5.40;;;4.40;;
33327;SDS011;19692;52.998;9.116;2022-07-18T00:07:42;6.07;;;4.80;;
33327;SDS011;19692;52.998;9.116;2022-07-18T00:10:07;9.93;;;4.87;;
33327;SDS011;19692;52.998;9.116;2022-07-18T00:12:33;5.67;;;4.53;;
33327;SDS011;19692;52.998;9.116;2022-07-18T00:14:59;4.87;;;4.27;;
33327;SDS011;19692;52.998;9.116;2022-07-18T00:17:25;5.43;;;4.60;;
33327;SDS011;19692;52.998;9.116;2022-07-18T00:19:51;7.80;;;4.80;;
33327;SDS011;19692;52.998;9.116;2022-07-18T00:22:17;10.90;;;5.27;;
33327;SDS011;19692;52.998;9.116;2022-07-18T00:24:43;10.17;;;5.07;;
33327;SDS011;19692;52.998;9.116;2022-07-18T00:27:09;9.47;;;4.83;;
33327;SDS011;19692;52.998;9.116;2022-07-18T00:29:34;7.87;;;5.33;;
33327;SDS011;19692;52.998;9.116;2022-07-18T00:32:04;10.57;;;5.27;;
33327;SDS011;19692;52.998;9.116;2022-07-18T00:34:31;7.93;;;4.83;;
33327;SDS011;19692;52.998;9.116;2022-07-18T00:36:58;6.97;;;4.63;;
33327;SDS011;19692;52.998;9.116;2022-07-18T00:39:24;7.23;;;4.73;;
33327;SDS011;19692;52.998;9.116;2022-07-18T00:41:50;6.77;;;4.77;;
33327;SDS011;19692;52.998;9.116;2022-07-18T00:44:21;7.40;;;4.80;;
33327;SDS011;19692;52.998;9.116;2022-07-18T00:46:50;6.40;;;4.37;;
33327;SDS011;19692;52.998;9.116;2022-07-18T00:49:17;6.27;;;4.93;;
33327;SDS011;19692;52.998;9.116;2022-07-18T00:51:43;6.10;;;4.97;;
33327;SDS011;19692;52.998;9.116;2022-07-18T00:54:11;9.57;;;5.13;;
33327;SDS011;19692;52.998;9.116;2022-07-18T00:56:37;6.67;;;4.77;;
33327;SDS011;19692;52.998;9.116;2022-07-18T00:59:03;5.63;;;5.03;;
33327;SDS011;19692;52.998;9.116;2022-07-18T01:01:29;7.20;;;5.23;;
33327;SDS011;19692;52.998;9.116;2022-07-18T01:04:08;8.43;;;5.17;;
33327;SDS011;19692;52.998;9.116;2022-07-18T01:06:47;8.80;;;5.47;;
33327;SDS011;19692;52.998;9.116;2022-07-18T01:09:15;5.47;;;4.97;;
33327;SDS011;19692;52.998;9.116;2022-07-18T01:11:46;6.93;;;4.70;;
33327;SDS011;19692;52.998;9.116;2022-07-18T01:14:13;6.50;;;5.20;;
33327;SDS011;19692;52.998;9.116;2022-07-18T01:16:40;6.33;;;5.23;;
33327;SDS011;19692;52.998;9.116;2022-07-18T01:19:05;7.07;;;5.37;;
33327;SDS011;19692;52.998;9.116;2022-07-18T01:21:31;5.93;;;5.03;;
33327;SDS011;19692;52.998;9.116;2022-07-18T01:23:57;5.80;;;5.30;;
33327;SDS011;19692;52.998;9.116;2022-07-18T01:26:24;6.83;;;5.10;;
33327;SDS011;19692;52.998;9.116;2022-07-18T01:28:50;5.87;;;5.23;;
33327;SDS011;19692;52.998;9.116;2022-07-18T01:31:15;6.13;;;4.83;;
33327;SDS011;19692;52.998;9.116;2022-07-18T01:33:41;4.90;;;4.40;;
33327;SDS011;19692;52.998;9.116;2022-07-18T01:36:07;7.63;;;4.60;;
33327;SDS011;19692;52.998;9.116;2022-07-18T01:38:33;5.33;;;4.60;;
33327;SDS011;19692;52.998;9.116;2022-07-18T01:41:00;5.63;;;4.60;;
33327;SDS011;19692;52.998;9.116;2022-07-18T01:43:26;6.30;;;4.73;;
33327;SDS011;19692;52.998;9.116;2022-07-18T01:45:52;5.57;;;4.77;;
33327;SDS011;19692;52.998;9.116;2022-07-18T01:48:19;6.20;;;5.00;;
33327;SDS011;19692;52.998;9.116;2022-07-18T01:50:47;8.83;;;5.13;;
33327;SDS011;19692;52.998;9.116;2022-07-18T01:53:13;5.57;;;4.80;;
33327;SDS011;19692;52.998;9.116;2022-07-18T01:55:39;6.13;;;4.50;;
33327;SDS011;19692;52.998;9.116;2022-07-18T01:58:05;7.33;;;5.00;;
33327;SDS011;19692;52.998;9.116;2022-07-18T02:00:31;7.23;;;5.40;;
33327;SDS011;19692;52.998;9.116;2022-07-18T02:02:57;6.67;;;5.33;;
33327;SDS011;19692;52.998;9.116;2022-07-18T02:05:22;5.50;;;4.90;;
33327;SDS011;19692;52.998;9.116;2022-07-18T02:07:48;5.40;;;4.87;;
33327;SDS011;19692;52.998;9.116;2022-07-18T02:10:16;6.83;;;5.17;;
33327;SDS011;19692;52.998;9.116;2022-07-18T02:12:44;8.40;;;5.90;;
33327;SDS011;19692;52.998;9.116;2022-07-18T02:15:11;5.83;;;5.13;;
33327;SDS011;19692;52.998;9.116;2022-07-18T02:17:38;7.03;;;5.00;;
33327;SDS011;19692;52.998;9.116;2022-07-18T02:20:05;6.40;;;5.13;;
33327;SDS011;19692;52.998;9.116;2022-07-18T02:22:34;6.60;;;5.07;;
33327;SDS011;19692;52.998;9.116;2022-07-18T02:25:00;7.13;;;4.73;;
33327;SDS011;19692;52.998;9.116;2022-07-18T02:27:26;6.80;;;5.40;;
33327;SDS011;19692;52.998;9.116;2022-07-18T02:29:52;6.87;;;4.70;;
33327;SDS011;19692;52.998;9.116;2022-07-18T02:32:18;6.00;;;5.33;;
33327;SDS011;19692;52.998;9.116;2022-07-18T02:34:44;7.83;;;5.47;;
33327;SDS011;19692;52.998;9.116;2022-07-18T02:37:10;6.77;;;5.20;;
33327;SDS011;19692;52.998;9.116;2022-07-18T02:39:36;6.53;;;5.20;;
33327;SDS011;19692;52.998;9.116;2022-07-18T02:42:02;6.10;;;5.43;;
33327;SDS011;19692;52.998;9.116;2022-07-18T02:44:30;7.27;;;5.57;;
33327;SDS011;19692;52.998;9.116;2022-07-18T02:46:55;6.23;;;5.43;;
33327;SDS011;19692;52.998;9.116;2022-07-18T02:49:21;5.67;;;5.10;;
33327;SDS011;19692;52.998;9.116;2022-07-18T02:54:28;7.80;;;4.97;;
33327;SDS011;19692;52.998;9.116;2022-07-18T02:56:57;6.50;;;5.43;;
33327;SDS011;19692;52.998;9.116;2022-07-18T02:59:24;5.80;;;5.03;;
33327;SDS011;19692;52.998;9.116;2022-07-18T03:01:51;5.77;;;5.17;;
33327;SDS011;19692;52.998;9.116;2022-07-18T03:04:18;6.93;;;5.57;;
33327;SDS011;19692;52.998;9.116;2022-07-18T03:06:44;6.70;;;5.17;;
33327;SDS011;19692;52.998;9.116;2022-07-18T03:09:11;5.30;;;4.77;;
33327;SDS011;19692;52.998;9.116;2022-07-18T03:11:38;7.37;;;5.30;;
33327;SDS011;19692;52.998;9.116;2022-07-18T03:14:04;7.10;;;5.43;;
33327;SDS011;19692;52.998;9.116;2022-07-18T03:16:29;9.60;;;5.97;;
33327;SDS011;19692;52.998;9.116;2022-07-18T03:18:55;6.13;;;5.53;;
33327;SDS011;19692;52.998;9.116;2022-07-18T03:21:21;8.93;;;6.80;;
33327;SDS011;19692;52.998;9.116;2022-07-18T03:23:47;8.17;;;5.60;;
33327;SDS011;19692;52.998;9.116;2022-07-18T03:26:13;6.60;;;5.90;;
33327;SDS011;19692;52.998;9.116;2022-07-18T03:28:38;6.17;;;5.57;;
33327;SDS011;19692;52.998;9.116;2022-07-18T03:31:04;7.77;;;5.60;;
33327;SDS011;19692;52.998;9.116;2022-07-18T03:33:30;5.70;;;5.20;;
33327;SDS011;19692;52.998;9.116;2022-07-18T03:35:56;6.43;;;5.77;;
33327;SDS011;19692;52.998;9.116;2022-07-18T03:38:22;7.93;;;6.20;;
33327;SDS011;19692;52.998;9.116;2022-07-18T03:40:47;6.57;;;5.87;;
33327;SDS011;19692;52.998;9.116;2022-07-18T03:43:13;7.83;;;5.37;;
33327;SDS011;19692;52.998;9.116;2022-07-18T03:45:39;6.20;;;5.23;;
33327;SDS011;19692;52.998;9.116;2022-07-18T03:48:05;6.63;;;5.23;;
33327;SDS011;19692;52.998;9.116;2022-07-18T03:50:31;6.27;;;5.17;;
33327;SDS011;19692;52.998;9.116;2022-07-18T03:52:57;6.63;;;5.63;;
33327;SDS011;19692;52.998;9.116;2022-07-18T03:55:23;6.67;;;5.87;;
33327;SDS011;19692;52.998;9.116;2022-07-18T03:57:49;8.77;;;5.93;;
33327;SDS011;19692;52.998;9.116;2022-07-18T04:00:14;6.90;;;5.70;;
33327;SDS011;19692;52.998;9.116;2022-07-18T04:02:41;7.40;;;5.90;;
33327;SDS011;19692;52.998;9.116;2022-07-18T04:05:12;9.53;;;5.40;;
33327;SDS011;19692;52.998;9.116;2022-07-18T04:07:39;7.13;;;5.67;;
33327;SDS011;19692;52.998;9.116;2022-07-18T04:10:06;8.70;;;5.83;;
33327;SDS011;19692;52.998;9.116;2022-07-18T04:12:33;7.90;;;5.80;;
33327;SDS011;19692;52.998;9.116;2022-07-18T04:14:59;5.60;;;5.00;;
33327;SDS011;19692;52.998;9.116;2022-07-18T04:17:25;6.10;;;5.50;;
33327;SDS011;19692;52.998;9.116;2022-07-18T04:19:51;5.73;;;5.07;;
33327;SDS011;19692;52.998;9.116;2022-07-18T04:22:17;6.27;;;5.67;;
33327;SDS011;19692;52.998;9.116;2022-07-18T04:24:42;5.80;;;5.20;;
33327;SDS011;19692;52.998;9.116;2022-07-18T04:27:08;8.40;;;5.43;;
33327;SDS011;19692;52.998;9.116;2022-07-18T04:29:34;8.70;;;5.63;;
33327;SDS011;19692;52.998;9.116;2022-07-18T04:32:01;7.13;;;5.37;;
33327;SDS011;19692;52.998;9.116;2022-07-18T04:34:27;9.43;;;5.87;;
33327;SDS011;19692;52.998;9.116;2022-07-18T04:36:53;6.67;;;5.60;;
33327;SDS011;19692;52.998;9.116;2022-07-18T04:39:19;6.77;;;5.30;;
33327;SDS011;19692;52.998;9.116;2022-07-18T04:41:44;6.30;;;4.97;;
33327;SDS011;19692;52.998;9.116;2022-07-18T04:44:12;6.77;;;5.47;;
33327;SDS011;19692;52.998;9.116;2022-07-18T04:46:38;7.70;;;5.17;;
33327;SDS011;19692;52.998;9.116;2022-07-18T04:49:04;6.43;;;5.33;;
33327;SDS011;19692;52.998;9.116;2022-07-18T04:51:29;5.00;;;4.50;;
33327;SDS011;19692;52.998;9.116;2022-07-18T04:53:55;6.27;;;4.73;;
33327;SDS011;19692;52.998;9.116;2022-07-18T04:56:22;6.90;;;5.07;;
33327;SDS011;19692;52.998;9.116;2022-07-18T04:58:48;7.47;;;4.90;;
33327;SDS011;19692;52.998;9.116;2022-07-18T05:01:14;6.90;;;5.20;;
33327;SDS011;19692;52.998;9.116;2022-07-18T05:03:39;5.90;;;5.27;;
33327;SDS011;19692;52.998;9.116;2022-07-18T05:06:05;5.57;;;4.67;;
33327;SDS011;19692;52.998;9.116;2022-07-18T05:08:31;7.37;;;4.80;;
33327;SDS011;19692;52.998;9.116;2022-07-18T05:10:57;7.10;;;5.07;;
33327;SDS011;19692;52.998;9.116;2022-07-18T05:13:23;6.73;;;4.90;;
33327;SDS011;19692;52.998;9.116;2022-07-18T05:15:48;5.67;;;5.03;;
33327;SDS011;19692;52.998;9.116;2022-07-18T05:18:14;6.03;;;5.20;;
33327;SDS011;19692;52.998;9.116;2022-07-18T05:20:40;5.67;;;4.60;;
33327;SDS011;19692;52.998;9.116;2022-07-18T05:23:06;7.73;;;4.87;;
33327;SDS011;19692;52.998;9.116;2022-07-18T05:25:32;7.23;;;4.70;;
33327;SDS011;19692;52.998;9.116;2022-07-18T05:27:57;6.27;;;4.30;;
33327;SDS011;19692;52.998;9.116;2022-07-18T05:30:23;5.37;;;4.60;;
33327;SDS011;19692;52.998;9.116;2022-07-18T05:32:49;5.43;;;4.57;;
33327;SDS011;19692;52.998;9.116;2022-07-18T05:35:17;5.50;;;4.60;;
33327;SDS011;19692;52.998;9.116;2022-07-18T05:37:43;5.23;;;4.23;;
33327;SDS011;19692;52.998;9.116;2022-07-18T05:40:10;4.87;;;4.47;;
33327;SDS011;19692;52.998;9.116;2022-07-18T05:42:39;5.83;;;4.10;;
33327;SDS011;19692;52.998;9.116;2022-07-18T05:45:05;6.40;;;4.57;;
33327;SDS011;19692;52.998;9.116;2022-07-18T05:47:31;5.40;;;4.70;;
33327;SDS011;19692;52.998;9.116;2022-07-18T05:49:57;8.13;;;4.30;;
33327;SDS011;19692;52.998;9.116;2022-07-18T05:52:23;4.60;;;4.20;;
33327;SDS011;19692;52.998;9.116;2022-07-18T05:54:48;4.70;;;4.20;;
33327;SDS011;19692;52.998;9.116;2022-07-18T05:57:14;6.43;;;4.00;;
33327;SDS011;19692;52.998;9.116;2022-07-18T05:59:40;6.23;;;3.90;;
33327;SDS011;19692;52.998;9.116;2022-07-18T06:02:06;5.43;;;3.90;;
33327;SDS011;19692;52.998;9.116;2022-07-18T06:04:31;5.17;;;3.83;;
33327;SDS011;19692;52.998;9.116;2022-07-18T06:06:57;4.87;;;3.97;;
33327;SDS011;19692;52.998;9.116;2022-07-18T06:09:23;7.43;;;4.20;;
33327;SDS011;19692;52.998;9.116;2022-07-18T06:11:49;4.43;;;3.60;;
33327;SDS011;19692;52.998;9.116;2022-07-18T06:14:15;4.43;;;3.70;;
33327;SDS011;19692;52.998;9.116;2022-07-18T06:16:41;4.33;;;3.50;;
33327;SDS011;19692;52.998;9.116;2022-07-18T06:19:07;3.97;;;3.60;;
33327;SDS011;19692;52.998;9.116;2022-07-18T06:21:33;4.50;;;3.60;;
33327;SDS011;19692;52.998;9.116;2022-07-18T06:23:58;4.63;;;3.70;;
33327;SDS011;19692;52.998;9.116;2022-07-18T06:26:24;5.23;;;3.73;;
33327;SDS011;19692;52.998;9.116;2022-07-18T06:28:50;4.27;;;3.87;;
33327;SDS011;19692;52.998;9.116;2022-07-18T06:31:15;5.23;;;4.03;;
33327;SDS011;19692;52.998;9.116;2022-07-18T06:33:42;3.50;;;3.03;;
33327;SDS011;19692;52.998;9.116;2022-07-18T06:36:07;4.70;;;3.17;;
33327;SDS011;19692;52.998;9.116;2022-07-18T06:38:36;6.27;;;3.87;;
33327;SDS011;19692;52.998;9.116;2022-07-18T06:41:03;6.53;;;3.80;;
33327;SDS011;19692;52.998;9.116;2022-07-18T06:43:30;6.33;;;3.67;;
33327;SDS011;19692;52.998;9.116;2022-07-18T06:45:56;7.30;;;3.50;;
33327;SDS011;19692;52.998;9.116;2022-07-18T06:48:22;4.40;;;3.57;;
33327;SDS011;19692;52.998;9.116;2022-07-18T06:50:48;5.87;;;3.53;;
33327;SDS011;19692;52.998;9.116;2022-07-18T06:53:14;3.87;;;3.30;;
33327;SDS011;19692;52.998;9.116;2022-07-18T06:55:40;6.30;;;3.47;;
33327;SDS011;19692;52.998;9.116;2022-07-18T06:58:06;6.43;;;3.17;;
33327;SDS011;19692;52.998;9.116;2022-07-18T07:00:32;4.73;;;3.27;;
33327;SDS011;19692;52.998;9.116;2022-07-18T07:02:58;5.00;;;3.50;;
33327;SDS011;19692;52.998;9.116;2022-07-18T07:05:24;5.97;;;3.20;;
33327;SDS011;19692;52.998;9.116;2022-07-18T07:07:49;5.90;;;3.60;;
33327;SDS011;19692;52.998;9.116;2022-07-18T07:10:16;3.57;;;3.00;;
33327;SDS011;19692;52.998;9.116;2022-07-18T07:12:44;3.93;;;3.07;;
33327;SDS011;19692;52.998;9.116;2022-07-18T07:15:17;6.33;;;3.00;;
33327;SDS011;19692;52.998;9.116;2022-07-18T07:17:45;4.60;;;3.13;;
33327;SDS011;19692;52.998;9.116;2022-07-18T07:20:11;6.00;;;3.13;;
33327;SDS011;19692;52.998;9.116;2022-07-18T07:22:48;6.00;;;3.10;;
33327;SDS011;19692;52.998;9.116;2022-07-18T07:25:19;6.63;;;3.13;;
33327;SDS011;19692;52.998;9.116;2022-07-18T07:27:48;13.73;;;3.47;;
33327;SDS011;19692;52.998;9.116;2022-07-18T07:30:14;4.00;;;2.80;;
33327;SDS011;19692;52.998;9.116;2022-07-18T07:32:41;4.37;;;2.80;;
33327;SDS011;19692;52.998;9.116;2022-07-18T07:35:09;4.77;;;2.83;;
33327;SDS011;19692;52.998;9.116;2022-07-18T07:37:38;4.57;;;3.00;;
33327;SDS011;19692;52.998;9.116;2022-07-18T07:40:07;7.47;;;2.80;;
33327;SDS011;19692;52.998;9.116;2022-07-18T07:42:34;5.13;;;2.90;;
33327;SDS011;19692;52.998;9.116;2022-07-18T07:45:00;3.90;;;2.80;;
33327;SDS011;19692;52.998;9.116;2022-07-18T07:47:26;7.50;;;2.80;;
33327;SDS011;19692;52.998;9.116;2022-07-18T07:49:53;4.43;;;2.80;;
33327;SDS011;19692;52.998;9.116;2022-07-18T07:52:20;4.13;;;2.80;;
33327;SDS011;19692;52.998;9.116;2022-07-18T07:54:46;6.27;;;2.80;;
33327;SDS011;19692;52.998;9.116;2022-07-18T07:57:12;3.73;;;2.83;;
33327;SDS011;19692;52.998;9.116;2022-07-18T07:59:38;3.60;;;2.90;;
33327;SDS011;19692;52.998;9.116;2022-07-18T08:02:04;5.00;;;2.73;;
33327;SDS011;19692;52.998;9.116;2022-07-18T08:04:30;4.27;;;2.50;;
33327;SDS011;19692;52.998;9.116;2022-07-18T08:06:56;4.10;;;2.63;;
33327;SDS011;19692;52.998;9.116;2022-07-18T08:09:22;3.40;;;2.50;;
33327;SDS011;19692;52.998;9.116;2022-07-18T08:11:47;2.97;;;2.20;;
33327;SDS011;19692;52.998;9.116;2022-07-18T08:14:13;4.50;;;3.00;;
33327;SDS011;19692;52.998;9.116;2022-07-18T08:16:39;5.17;;;2.70;;
33327;SDS011;19692;52.998;9.116;2022-07-18T08:19:05;3.97;;;2.67;;
33327;SDS011;19692;52.998;9.116;2022-07-18T08:21:31;5.63;;;2.77;;
33327;SDS011;19692;52.998;9.116;2022-07-18T08:23:56;4.33;;;2.63;;
33327;SDS011;19692;52.998;9.116;2022-07-18T08:26:22;3.90;;;2.30;;
33327;SDS011;19692;52.998;9.116;2022-07-18T08:28:48;2.43;;;2.13;;
33327;SDS011;19692;52.998;9.116;2022-07-18T08:31:14;5.27;;;2.37;;
33327;SDS011;19692;52.998;9.116;2022-07-18T08:33:39;3.10;;;2.33;;
33327;SDS011;19692;52.998;9.116;2022-07-18T08:36:05;2.77;;;2.40;;
33327;SDS011;19692;52.998;9.116;2022-07-18T08:38:33;4.50;;;2.40;;
33327;SDS011;19692;52.998;9.116;2022-07-18T08:40:59;3.80;;;2.30;;
33327;SDS011;19692;52.998;9.116;2022-07-18T08:43:26;3.50;;;2.00;;
33327;SDS011;19692;52.998;9.116;2022-07-18T08:45:56;4.07;;;2.50;;
33327;SDS011;19692;52.998;9.116;2022-07-18T08:48:30;3.50;;;2.40;;
33327;SDS011;19692;52.998;9.116;2022-07-18T08:50:57;5.33;;;2.27;;
33327;SDS011;19692;52.998;9.116;2022-07-18T08:53:24;4.50;;;2.60;;
33327;SDS011;19692;52.998;9.116;2022-07-18T08:55:52;5.40;;;2.80;;
33327;SDS011;19692;52.998;9.116;2022-07-18T08:58:18;4.40;;;2.73;;
33327;SDS011;19692;52.998;9.116;2022-07-18T09:00:45;5.93;;;2.90;;
33327;SDS011;19692;52.998;9.116;2022-07-18T09:03:10;4.37;;;3.00;;
33327;SDS011;19692;52.998;9.116;2022-07-18T09:05:37;5.17;;;3.13;;
33327;SDS011;19692;52.998;9.116;2022-07-18T09:08:19;5.07;;;3.27;;
33327;SDS011;19692;52.998;9.116;2022-07-18T09:13:21;6.33;;;3.97;;
33327;SDS011;19692;52.998;9.116;2022-07-18T09:16:02;4.50;;;3.63;;
33327;SDS011;19692;52.998;9.116;2022-07-18T09:18:34;5.43;;;4.20;;
33327;SDS011;19692;52.998;9.116;2022-07-18T09:21:09;5.97;;;4.60;;
33327;SDS011;19692;52.998;9.116;2022-07-18T09:23:38;5.50;;;3.97;;
33327;SDS011;19692;52.998;9.116;2022-07-18T09:26:07;4.77;;;4.20;;
33327;SDS011;19692;52.998;9.116;2022-07-18T09:28:48;4.47;;;4.00;;
33327;SDS011;19692;52.998;9.116;2022-07-18T09:31:22;4.83;;;4.30;;
33327;SDS011;19692;52.998;9.116;2022-07-18T09:33:57;5.20;;;4.70;;
33327;SDS011;19692;52.998;9.116;2022-07-18T09:36:24;5.47;;;4.83;;
33327;SDS011;19692;52.998;9.116;2022-07-18T09:38:51;5.57;;;4.27;;
33327;SDS011;19692;52.998;9.116;2022-07-18T09:41:27;6.77;;;4.70;;
33327;SDS011;19692;52.998;9.116;2022-07-18T09:43:58;5.43;;;4.93;;
33327;SDS011;19692;52.998;9.116;2022-07-18T09:46:24;5.07;;;4.57;;
33327;SDS011;19692;52.998;9.116;2022-07-18T09:49:09;5.07;;;4.37;;
33327;SDS011;19692;52.998;9.116;2022-07-18T09:51:35;5.80;;;4.90;;
33327;SDS011;19692;52.998;9.116;2022-07-18T09:54:01;4.83;;;4.30;;
33327;SDS011;19692;52.998;9.116;2022-07-18T09:56:28;6.33;;;4.83;;
33327;SDS011;19692;52.998;9.116;2022-07-18T09:58:58;8.17;;;4.70;;
33327;SDS011;19692;52.998;9.116;2022-07-18T10:01:24;6.03;;;4.53;;
33327;SDS011;19692;52.998;9.116;2022-07-18T10:03:50;8.40;;;5.33;;
33327;SDS011;19692;52.998;9.116;2022-07-18T10:06:17;5.93;;;5.37;;
33327;SDS011;19692;52.998;9.116;2022-07-18T10:08:43;6.40;;;5.80;;
33327;SDS011;19692;52.998;9.116;2022-07-18T10:11:09;7.00;;;5.50;;
33327;SDS011;19692;52.998;9.116;2022-07-18T10:13:36;6.80;;;5.43;;
33327;SDS011;19692;52.998;9.116;2022-07-18T10:16:03;6.37;;;5.70;;
33327;SDS011;19692;52.998;9.116;2022-07-18T10:18:31;8.67;;;5.17;;
33327;SDS011;19692;52.998;9.116;2022-07-18T10:23:34;5.90;;;5.27;;
33327;SDS011;19692;52.998;9.116;2022-07-18T10:31:22;6.27;;;5.13;;
33327;SDS011;19692;52.998;9.116;2022-07-18T10:36:33;5.83;;;5.23;;
33327;SDS011;19692;52.998;9.116;2022-07-18T10:39:03;6.23;;;5.23;;
33327;SDS011;19692;52.998;9.116;2022-07-18T11:00:08;7.83;;;5.70;;
33327;SDS011;19692;52.998;9.116;2022-07-18T11:02:39;7.17;;;5.93;;
33327;SDS011;19692;52.998;9.116;2022-07-18T11:16:14;7.27;;;6.57;;
33327;SDS011;19692;52.998;9.116;2022-07-18T11:21:22;7.30;;;6.60;;
33327;SDS011;19692;52.998;9.116;2022-07-18T11:23:54;8.80;;;7.20;;
33327;SDS011;19692;52.998;9.116;2022-07-18T11:26:25;7.50;;;6.03;;
33327;SDS011;19692;52.998;9.116;2022-07-18T11:28:59;7.77;;;7.07;;
33327;SDS011;19692;52.998;9.116;2022-07-18T11:31:48;6.90;;;6.27;;
33327;SDS011;19692;52.998;9.116;2022-07-18T11:34:21;7.13;;;6.50;;
33327;SDS011;19692;52.998;9.116;2022-07-18T11:36:48;8.20;;;6.63;;
33327;SDS011;19692;52.998;9.116;2022-07-18T11:39:15;7.00;;;6.33;;
33327;SDS011;19692;52.998;9.116;2022-07-18T11:41:54;8.80;;;6.80;;
33327;SDS011;19692;52.998;9.116;2022-07-18T11:44:20;7.70;;;6.90;;
33327;SDS011;19692;52.998;9.116;2022-07-18T11:47:05;8.87;;;6.80;;
33327;SDS011;19692;52.998;9.116;2022-07-18T11:49:34;7.27;;;6.57;;
33327;SDS011;19692;52.998;9.116;2022-07-18T11:52:01;7.57;;;6.87;;
33327;SDS011;19692;52.998;9.116;2022-07-18T11:54:27;9.50;;;6.37;;
33327;SDS011;19692;52.998;9.116;2022-07-18T11:56:54;7.23;;;6.50;;
33327;SDS011;19692;52.998;9.116;2022-07-18T11:59:21;6.97;;;6.27;;
33327;SDS011;19692;52.998;9.116;2022-07-18T12:01:47;6.77;;;6.17;;
33327;SDS011;19692;52.998;9.116;2022-07-18T12:04:21;6.93;;;6.23;;
33327;SDS011;19692;52.998;9.116;2022-07-18T12:09:41;7.20;;;6.53;;
33327;SDS011;19692;52.998;9.116;2022-07-18T12:12:11;6.37;;;5.77;;
33327;SDS011;19692;52.998;9.116;2022-07-18T12:14:39;7.07;;;6.20;;
33327;SDS011;19692;52.998;9.116;2022-07-18T12:17:05;6.87;;;5.67;;
33327;SDS011;19692;52.998;9.116;2022-07-18T12:19:38;6.90;;;5.83;;
33327;SDS011;19692;52.998;9.116;2022-07-18T12:22:11;7.83;;;5.70;;
33327;SDS011;19692;52.998;9.116;2022-07-18T12:24:51;6.30;;;5.70;;
33327;SDS011;19692;52.998;9.116;2022-07-18T12:30:02;6.63;;;5.93;;
33327;SDS011;19692;52.998;9.116;2022-07-18T12:38:06;6.57;;;5.83;;
33327;SDS011;19692;52.998;9.116;2022-07-18T12:40:49;6.73;;;5.70;;
33327;SDS011;19692;52.998;9.116;2022-07-18T12:43:35;6.70;;;5.70;;
33327;SDS011;19692;52.998;9.116;2022-07-18T12:46:03;6.20;;;5.60;;
33327;SDS011;19692;52.998;9.116;2022-07-18T12:48:34;6.93;;;6.20;;
33327;SDS011;19692;52.998;9.116;2022-07-18T12:51:07;6.20;;;5.60;;
33327;SDS011;19692;52.998;9.116;2022-07-18T12:53:36;6.73;;;5.37;;
33327;SDS011;19692;52.998;9.116;2022-07-18T12:56:04;8.23;;;5.73;;
33327;SDS011;19692;52.998;9.116;2022-07-18T12:58:30;7.30;;;5.17;;
33327;SDS011;19692;52.998;9.116;2022-07-18T13:00:56;7.00;;;5.77;;
33327;SDS011;19692;52.998;9.116;2022-07-18T13:03:22;7.07;;;5.47;;
33327;SDS011;19692;52.998;9.116;2022-07-18T13:05:48;6.20;;;5.30;;
33327;SDS011;19692;52.998;9.116;2022-07-18T13:08:14;6.20;;;5.60;;
33327;SDS011;19692;52.998;9.116;2022-07-18T13:10:40;5.83;;;5.33;;
33327;SDS011;19692;52.998;9.116;2022-07-18T13:13:07;6.20;;;5.60;;
33327;SDS011;19692;52.998;9.116;2022-07-18T13:15:34;6.20;;;5.20;;
33327;SDS011;19692;52.998;9.116;2022-07-18T13:18:01;6.10;;;5.20;;
33327;SDS011;19692;52.998;9.116;2022-07-18T13:20:27;7.13;;;5.17;;
33327;SDS011;19692;52.998;9.116;2022-07-18T13:22:55;6.20;;;5.30;;
33327;SDS011;19692;52.998;9.116;2022-07-18T13:25:21;6.97;;;5.17;;
33327;SDS011;19692;52.998;9.116;2022-07-18T13:27:47;6.47;;;5.30;;
33327;SDS011;19692;52.998;9.116;2022-07-18T13:30:13;6.27;;;5.17;;
33327;SDS011;19692;52.998;9.116;2022-07-18T13:32:39;5.73;;;5.13;;
33327;SDS011;19692;52.998;9.116;2022-07-18T13:35:09;5.43;;;4.80;;
33327;SDS011;19692;52.998;9.116;2022-07-18T13:37:35;5.77;;;5.17;;
33327;SDS011;19692;52.998;9.116;2022-07-18T13:40:01;5.83;;;5.20;;
33327;SDS011;19692;52.998;9.116;2022-07-18T13:42:26;5.77;;;5.20;;
33327;SDS011;19692;52.998;9.116;2022-07-18T13:44:52;5.63;;;5.10;;
33327;SDS011;19692;52.998;9.116;2022-07-18T13:47:18;5.77;;;5.03;;
33327;SDS011;19692;52.998;9.116;2022-07-18T13:49:43;5.73;;;5.23;;
33327;SDS011;19692;52.998;9.116;2022-07-18T13:52:09;5.60;;;5.10;;
33327;SDS011;19692;52.998;9.116;2022-07-18T13:54:35;5.50;;;4.90;;
33327;SDS011;19692;52.998;9.116;2022-07-18T13:57:01;5.57;;;5.07;;
33327;SDS011;19692;52.998;9.116;2022-07-18T13:59:26;5.40;;;4.93;;
33327;SDS011;19692;52.998;9.116;2022-07-18T14:01:52;5.97;;;4.93;;
33327;SDS011;19692;52.998;9.116;2022-07-18T14:04:18;7.03;;;5.00;;
33327;SDS011;19692;52.998;9.116;2022-07-18T14:06:47;5.67;;;4.60;;
33327;SDS011;19692;52.998;9.116;2022-07-18T14:09:13;4.93;;;4.53;;
33327;SDS011;19692;52.998;9.116;2022-07-18T14:11:39;4.80;;;4.40;;
33327;SDS011;19692;52.998;9.116;2022-07-18T14:14:05;7.57;;;5.07;;
33327;SDS011;19692;52.998;9.116;2022-07-18T14:16:31;4.80;;;4.40;;
33327;SDS011;19692;52.998;9.116;2022-07-18T14:18:57;4.80;;;4.30;;
33327;SDS011;19692;52.998;9.116;2022-07-18T14:21:23;5.10;;;4.60;;
33327;SDS011;19692;52.998;9.116;2022-07-18T14:23:49;5.07;;;4.33;;
33327;SDS011;19692;52.998;9.116;2022-07-18T14:26:15;5.53;;;4.47;;
33327;SDS011;19692;52.998;9.116;2022-07-18T14:28:41;5.57;;;4.20;;
33327;SDS011;19692;52.998;9.116;2022-07-18T14:31:07;5.50;;;5.00;;
33327;SDS011;19692;52.998;9.116;2022-07-18T14:33:33;5.40;;;4.27;;
33327;SDS011;19692;52.998;9.116;2022-07-18T14:35:59;5.40;;;4.87;;
33327;SDS011;19692;52.998;9.116;2022-07-18T14:38:25;6.07;;;4.43;;
33327;SDS011;19692;52.998;9.116;2022-07-18T14:40:51;7.10;;;4.33;;
33327;SDS011;19692;52.998;9.116;2022-07-18T14:43:16;4.87;;;4.47;;
33327;SDS011;19692;52.998;9.116;2022-07-18T14:45:42;5.07;;;4.57;;
33327;SDS011;19692;52.998;9.116;2022-07-18T14:48:08;6.53;;;4.20;;
33327;SDS011;19692;52.998;9.116;2022-07-18T14:50:34;4.90;;;4.50;;
33327;SDS011;19692;52.998;9.116;2022-07-18T14:52:59;4.60;;;4.20;;
33327;SDS011;19692;52.998;9.116;2022-07-18T14:55:25;5.43;;;4.17;;
33327;SDS011;19692;52.998;9.116;2022-07-18T14:57:51;7.53;;;4.60;;
33327;SDS011;19692;52.998;9.116;2022-07-18T15:00:18;6.97;;;4.60;;
33327;SDS011;19692;52.998;9.116;2022-07-18T15:02:44;6.10;;;4.30;;
33327;SDS011;19692;52.998;9.116;2022-07-18T15:05:09;4.97;;;4.30;;
33327;SDS011;19692;52.998;9.116;2022-07-18T15:07:35;4.93;;;3.70;;
33327;SDS011;19692;52.998;9.116;2022-07-18T15:10:02;4.37;;;4.00;;
33327;SDS011;19692;52.998;9.116;2022-07-18T15:12:29;5.03;;;4.53;;
33327;SDS011;19692;52.998;9.116;2022-07-18T15:14:56;4.70;;;4.20;;
33327;SDS011;19692;52.998;9.116;2022-07-18T15:17:23;4.43;;;3.67;;
33327;SDS011;19692;52.998;9.116;2022-07-18T15:19:52;5.20;;;3.87;;
33327;SDS011;19692;52.998;9.116;2022-07-18T15:22:18;5.03;;;3.70;;
33327;SDS011;19692;52.998;9.116;2022-07-18T15:24:44;4.20;;;3.80;;
33327;SDS011;19692;52.998;9.116;2022-07-18T15:27:12;4.53;;;4.13;;
33327;SDS011;19692;52.998;9.116;2022-07-18T15:29:38;4.37;;;3.97;;
33327;SDS011;19692;52.998;9.116;2022-07-18T15:32:04;4.33;;;3.93;;
33327;SDS011;19692;52.998;9.116;2022-07-18T15:34:34;5.03;;;4.00;;
33327;SDS011;19692;52.998;9.116;2022-07-18T15:37:01;6.17;;;3.87;;
33327;SDS011;19692;52.998;9.116;2022-07-18T15:39:27;4.60;;;4.17;;
33327;SDS011;19692;52.998;9.116;2022-07-18T15:41:53;4.13;;;3.73;;
33327;SDS011;19692;52.998;9.116;2022-07-18T15:44:18;6.07;;;3.90;;
33327;SDS011;19692;52.998;9.116;2022-07-18T15:46:44;5.87;;;4.23;;